createdAt,value
2018-09-14T00:00:22.368Z,6.57
2018-09-14T00:02:50.922Z,6.87
2018-09-14T00:05:19.488Z,5.85
2018-09-14T00:07:47.972Z,6.87
2018-09-14T00:10:16.613Z,12.00
2018-09-14T00:12:44.892Z,11.77
2018-09-14T00:15:13.167Z,13.03
2018-09-14T00:17:41.432Z,17.10
2018-09-14T00:20:10.027Z,14.95
2018-09-14T00:22:38.322Z,17.07
2018-09-14T00:25:06.959Z,17.20
2018-09-14T00:27:35.306Z,17.87
2018-09-14T00:30:04.067Z,20.10
2018-09-14T00:32:32.361Z,18.90
2018-09-14T00:35:01.125Z,19.00
2018-09-14T00:37:29.516Z,23.47
2018-09-14T00:39:57.795Z,19.73
2018-09-14T00:42:26.168Z,22.10
2018-09-14T00:44:55.112Z,23.53
2018-09-14T00:47:23.679Z,25.15
2018-09-14T00:49:52.255Z,28.13
2018-09-14T00:52:20.528Z,29.87
2018-09-14T00:54:49.092Z,28.30
2018-09-14T00:57:17.393Z,29.93
2018-09-14T00:59:46.180Z,35.37
2018-09-14T01:02:14.564Z,27.40
2018-09-14T01:04:43.146Z,30.35
2018-09-14T01:07:11.699Z,30.57
2018-09-14T01:09:39.997Z,33.17
2018-09-14T01:12:08.612Z,38.30
2018-09-14T01:14:37.240Z,35.43
2018-09-14T01:17:06.201Z,39.48
2018-09-14T01:19:34.920Z,38.50
2018-09-14T01:22:03.473Z,37.80
2018-09-14T01:24:31.769Z,47.47
2018-09-14T01:27:00.131Z,42.77
2018-09-14T01:29:28.435Z,38.30
2018-09-14T01:31:57.072Z,40.92
2018-09-14T01:34:25.593Z,44.33
2018-09-14T01:36:54.160Z,39.43
2018-09-14T01:39:22.718Z,39.90
2018-09-14T01:41:51.116Z,42.63
2018-09-14T01:44:19.423Z,44.27
2018-09-14T01:46:47.726Z,44.77
2018-09-14T01:49:16.560Z,40.87
2018-09-14T01:51:44.851Z,49.80
2018-09-14T01:54:13.435Z,50.70
2018-09-14T01:56:41.780Z,40.47
2018-09-14T01:59:10.065Z,45.80
2018-09-14T02:01:38.465Z,36.83
2018-09-14T02:04:07.360Z,36.43
2018-09-14T02:06:35.881Z,40.23
2018-09-14T02:09:06.227Z,39.00
2018-09-14T02:11:34.544Z,38.37
2018-09-14T02:14:03.156Z,28.73
2018-09-14T02:16:31.616Z,34.23
2018-09-14T02:18:59.922Z,31.13
2018-09-14T02:21:28.538Z,34.73
2018-09-14T02:23:56.819Z,29.50
2018-09-14T02:26:25.399Z,35.30
2018-09-14T02:28:53.675Z,37.93
2018-09-14T02:31:22.070Z,39.10
2018-09-14T02:33:50.668Z,39.67
2018-09-14T02:36:19.008Z,34.03
2018-09-14T02:38:47.396Z,35.73
2018-09-14T02:41:15.807Z,37.30
2018-09-14T02:43:44.411Z,33.77
2018-09-14T02:46:13.291Z,26.30
2018-09-14T02:48:41.625Z,33.73
2018-09-14T02:51:10.201Z,26.10
2018-09-14T02:53:38.866Z,32.17
2018-09-14T02:56:07.219Z,25.80
2018-09-14T02:58:35.515Z,24.37
2018-09-14T03:01:04.419Z,28.65
2018-09-14T03:03:33.003Z,22.25
2018-09-14T03:06:01.600Z,28.17
2018-09-14T03:08:29.884Z,29.03
2018-09-14T03:10:58.444Z,28.67
2018-09-14T03:13:27.063Z,27.17
2018-09-14T03:15:55.377Z,25.70
2018-09-14T03:18:23.683Z,25.73
2018-09-14T03:20:52.991Z,34.50
2018-09-14T03:23:21.265Z,28.00
2018-09-14T03:25:49.794Z,27.97
2018-09-14T03:28:18.084Z,21.73
2018-09-14T03:30:46.664Z,25.13
2018-09-14T03:33:15.261Z,25.68
2018-09-14T03:35:43.537Z,40.27
2018-09-14T03:38:11.997Z,31.57
2018-09-14T03:40:40.318Z,29.60
2018-09-14T03:43:08.599Z,27.43
2018-09-14T03:45:37.108Z,26.27
2018-09-14T03:48:06.040Z,23.90
2018-09-14T03:50:34.584Z,22.60
2018-09-14T03:53:03.069Z,21.50
2018-09-14T03:55:31.694Z,27.33
2018-09-14T03:58:00.281Z,21.65
2018-09-14T04:00:28.847Z,22.00
2018-09-14T04:02:57.452Z,21.52
2018-09-14T04:05:25.820Z,27.03
2018-09-14T04:07:54.652Z,23.80
2018-09-14T04:10:23.296Z,21.80
2018-09-14T04:12:51.594Z,26.97
2018-09-14T04:15:19.901Z,29.20
2018-09-14T04:17:48.206Z,31.10
2018-09-14T04:20:16.678Z,28.63
2018-09-14T04:22:45.176Z,26.60
2018-09-14T04:25:13.758Z,28.25
2018-09-14T04:27:42.062Z,24.60
2018-09-14T04:30:10.614Z,27.95
2018-09-14T04:32:39.040Z,28.90
2018-09-14T04:35:07.616Z,28.75
2018-09-14T04:37:36.066Z,22.73
2018-09-14T04:40:04.500Z,26.93
2018-09-14T04:42:33.264Z,27.03
2018-09-14T04:45:01.915Z,31.63
2018-09-14T04:47:30.393Z,28.40
2018-09-14T04:49:58.716Z,32.60
2018-09-14T04:52:27.058Z,26.80
2018-09-14T04:54:55.378Z,30.23
2018-09-14T04:57:24.088Z,29.65
2018-09-14T04:59:53.100Z,24.92
2018-09-14T05:02:21.869Z,27.23
2018-09-14T05:04:50.214Z,27.13
2018-09-14T05:07:18.723Z,25.50
2018-09-14T05:09:47.269Z,33.20
2018-09-14T05:12:15.785Z,26.90
2018-09-14T05:14:44.352Z,33.30
2018-09-14T05:17:12.937Z,33.63
2018-09-14T05:19:41.221Z,27.00
2018-09-14T05:22:10.063Z,31.47
2018-09-14T05:24:38.680Z,30.57
2018-09-14T05:27:07.282Z,29.97
2018-09-14T05:29:35.744Z,34.80
2018-09-14T05:32:04.518Z,26.03
2018-09-14T05:34:32.875Z,30.37
2018-09-14T05:37:01.312Z,24.10
2018-09-14T05:39:30.007Z,30.00
2018-09-14T05:41:59.159Z,32.67
2018-09-14T05:44:27.755Z,27.27
2018-09-14T05:46:56.720Z,24.92
2018-09-14T05:49:25.312Z,22.70
2018-09-14T05:51:54.095Z,25.90
2018-09-14T05:54:22.882Z,18.73
2018-09-14T05:56:52.125Z,15.13
2018-09-14T05:59:20.825Z,17.83
2018-09-14T06:01:49.436Z,11.90
2018-09-14T06:04:17.884Z,15.53
2018-09-14T06:06:46.652Z,19.27
2018-09-14T06:09:15.647Z,16.27
2018-09-14T06:11:44.521Z,18.65
2018-09-14T06:14:12.899Z,18.73
2018-09-14T06:16:42.047Z,20.23
2018-09-14T06:19:10.384Z,22.03
2018-09-14T06:21:38.787Z,21.90
2018-09-14T06:24:07.476Z,22.83
2018-09-14T06:26:35.796Z,27.67
2018-09-14T06:29:04.439Z,27.67
2018-09-14T06:31:32.803Z,23.70
2018-09-14T06:34:01.087Z,21.03
2018-09-14T06:36:29.684Z,17.23
2018-09-14T06:38:58.023Z,18.07
2018-09-14T06:41:26.477Z,16.70
2018-09-14T06:43:55.023Z,17.10
2018-09-14T06:46:23.347Z,16.27
2018-09-14T06:48:51.641Z,14.93
2018-09-14T06:51:20.236Z,13.20
2018-09-14T06:53:48.548Z,13.13
2018-09-14T06:56:16.871Z,14.73
2018-09-14T06:58:45.168Z,9.73
2018-09-14T07:01:13.461Z,15.07
2018-09-14T07:03:42.283Z,11.85
2018-09-14T07:06:10.777Z,11.13
2018-09-14T07:08:39.294Z,12.37
2018-09-14T07:11:07.909Z,9.43
2018-09-14T07:13:36.431Z,14.10
2018-09-14T07:16:04.983Z,11.20
2018-09-14T07:18:33.838Z,18.53
2018-09-14T07:21:02.394Z,13.35
2018-09-14T07:23:31.024Z,13.70
2018-09-14T07:25:59.469Z,11.37
2018-09-14T07:28:27.784Z,12.63
2018-09-14T07:30:56.214Z,12.90
2018-09-14T07:33:24.656Z,11.60
2018-09-14T07:35:53.396Z,13.93
2018-09-14T07:38:22.128Z,14.20
2018-09-14T07:40:50.618Z,10.90
2018-09-14T07:43:18.911Z,14.13
2018-09-14T07:45:47.514Z,15.57
2018-09-14T07:48:16.195Z,14.47
2018-09-14T07:50:44.907Z,15.60
2018-09-14T07:53:13.249Z,12.10
2018-09-14T07:55:41.612Z,12.67
2018-09-14T07:58:09.884Z,11.63
2018-09-14T08:00:38.244Z,15.47
2018-09-14T08:03:08.651Z,12.50
2018-09-14T08:05:37.163Z,14.27
2018-09-14T08:08:05.764Z,15.47
2018-09-14T08:10:34.137Z,12.70
2018-09-14T08:13:02.473Z,14.47
2018-09-14T08:15:30.927Z,20.23
2018-09-14T08:17:59.489Z,14.83
2018-09-14T08:20:28.134Z,15.90
2018-09-14T08:22:56.523Z,17.17
2018-09-14T08:25:24.865Z,22.13
2018-09-14T08:27:53.460Z,14.13
2018-09-14T08:30:21.995Z,12.77
2018-09-14T08:32:50.506Z,15.70
2018-09-14T08:35:19.065Z,15.50
2018-09-14T08:37:47.757Z,14.28
2018-09-14T08:40:16.200Z,14.17
2018-09-14T08:42:44.856Z,12.00
2018-09-14T08:45:13.484Z,16.30
2018-09-14T08:47:41.827Z,13.07
2018-09-14T08:50:10.853Z,13.58
2018-09-14T08:52:39.485Z,12.78
2018-09-14T08:55:09.185Z,11.23
2018-09-14T08:57:37.785Z,12.60
2018-09-14T09:00:06.472Z,15.00
2018-09-14T09:02:35.322Z,11.88
2018-09-14T09:05:03.975Z,12.60
2018-09-14T09:07:32.410Z,11.10
2018-09-14T09:10:00.907Z,13.30
2018-09-14T09:12:29.353Z,10.57
2018-09-14T09:14:58.006Z,10.27
2018-09-14T09:17:26.656Z,11.12
2018-09-14T09:19:55.243Z,10.80
2018-09-14T09:22:23.820Z,10.93
2018-09-14T09:24:52.554Z,7.62
2018-09-14T09:27:21.114Z,11.12
2018-09-14T09:29:49.401Z,8.80
2018-09-14T09:32:17.679Z,9.97
2018-09-14T09:34:45.951Z,5.63
2018-09-14T09:37:14.235Z,7.07
2018-09-14T09:39:42.803Z,4.50
2018-09-14T09:42:11.124Z,7.03
2018-09-14T09:44:39.717Z,5.80
2018-09-14T09:47:08.125Z,4.53
2018-09-14T09:49:36.683Z,4.35
2018-09-14T09:52:05.011Z,4.90
2018-09-14T09:54:33.595Z,4.67
2018-09-14T09:57:01.959Z,5.07
2018-09-14T09:59:30.236Z,4.33
2018-09-14T10:02:03.905Z,4.17
2018-09-14T10:04:32.437Z,4.20
2018-09-14T10:07:00.807Z,4.17
2018-09-14T10:09:29.329Z,4.30
2018-09-14T10:12:05.032Z,3.92
2018-09-14T10:14:33.348Z,3.67
2018-09-14T10:17:01.829Z,4.63
2018-09-14T10:19:35.645Z,4.03
2018-09-14T10:22:04.259Z,4.00
2018-09-14T10:27:09.818Z,4.33
2018-09-14T10:29:38.152Z,3.93
2018-09-14T10:32:06.751Z,4.87
2018-09-14T10:34:35.049Z,3.83
2018-09-14T10:37:03.700Z,3.13
2018-09-14T10:39:32.140Z,3.20
2018-09-14T10:42:00.871Z,3.67
2018-09-14T10:44:33.005Z,3.27
2018-09-14T10:47:01.333Z,4.03
2018-09-14T10:49:29.865Z,3.30
2018-09-14T10:54:34.436Z,2.80
2018-09-14T10:57:03.032Z,2.50
2018-09-14T10:59:31.466Z,4.80
2018-09-14T11:02:01.511Z,3.27
2018-09-14T11:04:30.108Z,2.47
2018-09-14T11:07:02.853Z,3.47
2018-09-14T11:09:31.560Z,4.80
2018-09-14T11:11:59.836Z,4.20
2018-09-14T11:14:28.112Z,5.07
2018-09-14T11:16:56.557Z,3.77
2018-09-14T11:19:24.840Z,4.40
2018-09-14T11:21:53.208Z,6.50
2018-09-14T11:24:21.679Z,5.50
2018-09-14T11:26:49.997Z,5.10
2018-09-14T11:29:19.168Z,4.90
2018-09-14T11:31:48.129Z,5.13
2018-09-14T11:34:16.697Z,5.87
2018-09-14T11:36:45.176Z,7.20
2018-09-14T11:39:13.562Z,4.40
2018-09-14T11:41:41.984Z,5.03
2018-09-14T11:44:10.329Z,6.63
2018-09-14T11:46:38.691Z,5.30
2018-09-14T11:49:07.086Z,5.23
2018-09-14T11:51:36.060Z,4.87
2018-09-14T11:54:06.289Z,4.40
2018-09-14T11:56:34.939Z,6.17
2018-09-14T11:59:03.229Z,4.80
2018-09-14T12:01:32.942Z,3.77
2018-09-14T12:04:02.695Z,4.27
2018-09-14T12:06:31.410Z,4.57
2018-09-14T12:08:59.961Z,3.83
2018-09-14T12:11:28.279Z,4.80
2018-09-14T12:13:56.588Z,4.47
2018-09-14T12:16:25.631Z,3.67
2018-09-14T12:18:53.931Z,4.03
2018-09-14T12:21:22.442Z,4.70
2018-09-14T12:23:51.475Z,5.67
2018-09-14T12:26:20.058Z,4.43
2018-09-14T12:28:52.484Z,6.73
2018-09-14T12:31:22.148Z,4.20
2018-09-14T12:33:52.776Z,4.42
2018-09-14T12:36:23.353Z,4.20
2018-09-14T12:38:56.126Z,3.97
2018-09-14T12:41:38.106Z,3.52
2018-09-14T12:44:07.594Z,3.17
2018-09-14T12:46:35.981Z,3.60
2018-09-14T12:49:04.368Z,3.40
2018-09-14T12:51:32.675Z,3.27
2018-09-14T12:54:02.860Z,3.23
2018-09-14T12:56:31.362Z,3.40
2018-09-14T12:59:00.027Z,5.67
2018-09-14T13:01:28.800Z,3.80
2018-09-14T13:03:57.195Z,5.67
2018-09-14T13:06:25.640Z,4.20
2018-09-14T13:08:55.352Z,4.40
2018-09-14T13:11:24.375Z,4.23
2018-09-14T13:13:53.621Z,4.13
2018-09-14T13:16:21.963Z,5.10
2018-09-14T13:18:50.449Z,3.30
2018-09-14T13:21:19.015Z,4.50
2018-09-14T13:23:47.332Z,6.33
2018-09-14T13:26:15.615Z,6.33
2018-09-14T13:28:44.194Z,6.20
2018-09-14T13:31:12.521Z,4.13
2018-09-14T13:33:41.162Z,4.80
2018-09-14T13:36:09.749Z,4.67
2018-09-14T13:38:38.119Z,6.13
2018-09-14T13:41:07.504Z,11.12
2018-09-14T13:43:36.292Z,6.30
2018-09-14T13:46:04.918Z,5.37
2018-09-14T13:48:33.509Z,5.60
2018-09-14T13:51:02.194Z,4.58
2018-09-14T13:53:32.219Z,5.73
2018-09-14T13:56:02.696Z,4.83
2018-09-14T13:58:31.660Z,4.75
2018-09-14T14:01:01.965Z,4.70
2018-09-14T14:03:30.491Z,4.20
2018-09-14T14:05:59.019Z,5.20
2018-09-14T14:08:27.580Z,3.58
2018-09-14T14:10:56.347Z,3.70
2018-09-14T14:13:24.640Z,3.83
2018-09-14T14:15:54.268Z,3.72
2018-09-14T14:18:22.639Z,5.30
2018-09-14T14:20:50.984Z,4.13
2018-09-14T14:23:19.565Z,3.13
2018-09-14T14:25:48.981Z,4.20
2018-09-14T14:28:17.611Z,3.33
2018-09-14T14:30:46.116Z,3.40
2018-09-14T14:33:14.405Z,7.63
2018-09-14T14:35:42.778Z,3.17
2018-09-14T14:38:11.144Z,3.17
2018-09-14T14:40:39.696Z,3.58
2018-09-14T14:43:08.019Z,4.97
2018-09-14T14:45:36.522Z,4.00
2018-09-14T14:48:04.864Z,4.13
2018-09-14T14:50:33.216Z,3.27
2018-09-14T14:53:01.524Z,5.80
2018-09-14T14:55:30.071Z,5.33
2018-09-14T14:57:58.357Z,3.07
2018-09-14T15:00:26.801Z,3.60
2018-09-14T15:02:55.251Z,4.07
2018-09-14T15:05:23.651Z,4.30
2018-09-14T15:07:52.264Z,3.33
2018-09-14T15:10:20.896Z,4.92
2018-09-14T15:12:49.219Z,4.80
2018-09-14T15:15:17.632Z,6.10
2018-09-14T15:17:45.971Z,3.20
2018-09-14T15:20:14.865Z,5.57
2018-09-14T15:22:43.378Z,4.00
2018-09-14T15:25:11.942Z,2.98
2018-09-14T15:27:40.720Z,4.03
2018-09-14T15:30:09.016Z,3.93
2018-09-14T15:32:37.554Z,4.85
2018-09-14T15:35:06.219Z,3.77
2018-09-14T15:37:34.817Z,2.80
2018-09-14T15:40:03.253Z,3.30
2018-09-14T15:42:31.803Z,7.30
2018-09-14T15:45:00.532Z,4.12
2018-09-14T15:47:29.226Z,3.57
2018-09-14T15:49:57.813Z,4.10
2018-09-14T15:52:26.196Z,3.10
2018-09-14T15:54:55.019Z,7.97
2018-09-14T15:57:23.567Z,10.27
2018-09-14T15:59:53.739Z,3.37
2018-09-14T16:02:22.036Z,3.80
2018-09-14T16:04:50.584Z,6.53
2018-09-14T16:07:18.902Z,3.93
2018-09-14T16:09:47.545Z,4.20
2018-09-14T16:12:15.839Z,5.60
2018-09-14T16:14:44.119Z,4.17
2018-09-14T16:17:12.700Z,4.03
2018-09-14T16:19:41.324Z,3.17
2018-09-14T16:22:09.690Z,4.50
2018-09-14T16:24:37.971Z,4.27
2018-09-14T16:27:08.992Z,4.10
2018-09-14T16:29:37.585Z,6.83
2018-09-14T16:32:06.596Z,4.03
2018-09-14T16:34:35.708Z,3.90
2018-09-14T16:37:04.343Z,5.20
2018-09-14T16:39:39.628Z,3.65
2018-09-14T16:42:08.520Z,3.87
2018-09-14T16:44:41.071Z,3.77
2018-09-14T16:47:09.784Z,4.30
2018-09-14T16:49:38.459Z,8.00
2018-09-14T16:52:07.097Z,3.90
2018-09-14T16:54:35.703Z,3.80
2018-09-14T16:57:04.600Z,4.67
2018-09-14T16:59:33.277Z,4.25
2018-09-14T17:02:01.605Z,7.13
2018-09-14T17:04:30.002Z,5.57
2018-09-14T17:06:59.139Z,6.70
2018-09-14T17:09:27.410Z,5.63
2018-09-14T17:11:55.705Z,5.70
2018-09-14T17:14:24.064Z,8.93
2018-09-14T17:16:53.253Z,7.72
2018-09-14T17:19:21.561Z,6.53
2018-09-14T17:21:50.095Z,6.37
2018-09-14T17:24:21.585Z,5.97
2018-09-14T17:26:50.308Z,5.47
2018-09-14T17:29:18.589Z,6.77
2018-09-14T17:31:46.883Z,6.00
2018-09-14T17:34:15.463Z,5.57
2018-09-14T17:36:43.771Z,6.50
2018-09-14T17:39:12.836Z,5.95
2018-09-14T17:41:41.556Z,6.00
2018-09-14T17:44:10.185Z,6.40
2018-09-14T17:46:41.719Z,6.60
2018-09-14T17:49:11.391Z,6.87
2018-09-14T17:51:40.312Z,6.63
2018-09-14T17:54:08.936Z,7.73
2018-09-14T17:56:37.236Z,9.93
2018-09-14T17:59:06.306Z,6.07
2018-09-14T18:01:34.799Z,7.13
2018-09-14T18:04:03.416Z,9.13
2018-09-14T18:06:31.715Z,8.60
2018-09-14T18:09:00.046Z,7.20
2018-09-14T18:11:28.952Z,8.60
2018-09-14T18:13:57.257Z,10.83
2018-09-14T18:16:25.990Z,8.00
2018-09-14T18:18:54.593Z,17.83
2018-09-14T18:21:22.896Z,9.20
2018-09-14T18:23:51.515Z,11.55
2018-09-14T18:26:20.178Z,11.10
2018-09-14T18:28:48.550Z,12.50
2018-09-14T18:31:17.180Z,10.73
2018-09-14T18:33:45.496Z,11.07
2018-09-14T18:36:14.999Z,10.57
2018-09-14T18:38:46.312Z,10.20
2018-09-14T18:41:14.892Z,10.70
2018-09-14T18:43:43.238Z,11.73
2018-09-14T18:46:11.600Z,11.17
2018-09-14T18:48:41.649Z,11.63
2018-09-14T18:51:11.443Z,10.00
2018-09-14T18:53:40.007Z,13.33
2018-09-14T18:56:08.324Z,9.60
2018-09-14T18:58:36.816Z,13.73
2018-09-14T19:01:05.490Z,7.90
2018-09-14T19:03:33.870Z,11.50
2018-09-14T19:06:02.263Z,10.77
2018-09-14T19:08:30.725Z,13.37
2018-09-14T19:10:59.490Z,14.50
2018-09-14T19:13:27.942Z,15.60
2018-09-14T19:15:56.922Z,15.33
2018-09-14T19:18:25.656Z,12.80
2018-09-14T19:20:54.325Z,15.27
2018-09-14T19:23:22.632Z,13.80
2018-09-14T19:25:51.418Z,14.43
2018-09-14T19:28:19.731Z,18.17
2018-09-14T19:30:48.036Z,11.80
2018-09-14T19:33:16.669Z,12.63
2018-09-14T19:35:45.132Z,12.50
2018-09-14T19:38:13.421Z,12.00
2018-09-14T19:40:41.710Z,13.80
2018-09-14T19:43:10.775Z,12.17
2018-09-14T19:45:39.196Z,12.93
2018-09-14T19:48:07.841Z,14.43
2018-09-14T19:50:36.648Z,14.73
2018-09-14T19:53:05.756Z,15.23
2018-09-14T19:55:34.083Z,12.90
2018-09-14T19:58:02.804Z,14.73
2018-09-14T20:00:31.388Z,15.37
2018-09-14T20:02:59.914Z,17.90
2018-09-14T20:05:28.475Z,22.63
2018-09-14T20:07:56.771Z,17.17
2018-09-14T20:10:25.054Z,15.60
2018-09-14T20:12:53.344Z,14.67
2018-09-14T20:15:21.792Z,16.70
2018-09-14T20:17:50.095Z,17.83
2018-09-14T20:20:19.746Z,19.13
2018-09-14T20:22:48.105Z,19.50
2018-09-14T20:25:16.659Z,19.05
2018-09-14T20:27:45.261Z,20.70
2018-09-14T20:30:13.793Z,17.27
2018-09-14T20:32:42.320Z,20.83
2018-09-14T20:35:10.874Z,18.27
2018-09-14T20:37:39.184Z,18.47
2018-09-14T20:40:07.741Z,24.60
2018-09-14T20:42:36.043Z,21.40
2018-09-14T20:45:04.732Z,19.73
2018-09-14T20:47:33.540Z,19.20
2018-09-14T20:50:01.849Z,16.00
2018-09-14T20:52:30.377Z,22.03
2018-09-14T20:54:58.659Z,16.97
2018-09-14T20:57:26.982Z,20.00
2018-09-14T20:59:55.267Z,20.77
2018-09-14T21:02:23.834Z,19.40
2018-09-14T21:04:52.768Z,21.70
2018-09-14T21:07:21.314Z,22.58
2018-09-14T21:09:49.590Z,23.87
2018-09-14T21:12:18.221Z,21.90
2018-09-14T21:14:46.654Z,26.67
2018-09-14T21:17:15.478Z,23.70
2018-09-14T21:19:44.128Z,24.12
2018-09-14T21:22:13.057Z,25.12
2018-09-14T21:24:41.840Z,23.23
2018-09-14T21:27:10.407Z,20.17
2018-09-14T21:29:38.796Z,22.80
2018-09-14T21:32:07.363Z,20.87
2018-09-14T21:34:35.683Z,24.80
2018-09-14T21:37:03.947Z,21.40
2018-09-14T21:39:32.850Z,20.70
2018-09-14T21:42:01.176Z,24.93
2018-09-14T21:44:29.564Z,20.90
2018-09-14T21:46:57.848Z,23.43
2018-09-14T21:49:26.223Z,21.50
2018-09-14T21:51:54.668Z,22.30
2018-09-14T21:54:23.015Z,24.90
2018-09-14T21:56:51.507Z,23.30
2018-09-14T21:59:19.788Z,26.60
2018-09-14T22:01:48.516Z,23.67
2018-09-14T22:04:16.817Z,21.57
2018-09-14T22:06:45.461Z,21.90
2018-09-14T22:09:13.841Z,26.13
2018-09-14T22:11:42.269Z,26.17
2018-09-14T22:14:10.598Z,25.37
2018-09-14T22:16:39.148Z,25.17
2018-09-14T22:19:07.789Z,23.70
2018-09-14T22:21:36.147Z,30.13
2018-09-14T22:24:04.590Z,30.03
2018-09-14T22:26:33.209Z,30.80
2018-09-14T22:29:01.501Z,34.70
2018-09-14T22:31:30.044Z,26.68
2018-09-14T22:33:58.871Z,24.23
2018-09-14T22:36:27.146Z,26.93
2018-09-14T22:38:55.444Z,29.33
2018-09-14T22:41:23.745Z,28.40
2018-09-14T22:43:52.033Z,26.87
2018-09-14T22:46:20.613Z,34.88
2018-09-14T22:48:48.988Z,28.50
2018-09-14T22:51:17.393Z,25.77
2018-09-14T22:53:45.668Z,24.73
2018-09-14T22:56:14.299Z,30.10
2018-09-14T22:58:42.592Z,25.83
2018-09-14T23:01:16.735Z,27.75
2018-09-14T23:03:46.023Z,27.50
2018-09-14T23:06:14.288Z,26.60
2018-09-14T23:08:42.907Z,23.67
2018-09-14T23:11:11.482Z,29.33
2018-09-14T23:13:40.329Z,26.53
2018-09-14T23:16:08.670Z,27.50
2018-09-14T23:18:37.056Z,26.07
2018-09-14T23:21:05.515Z,28.00
2018-09-14T23:23:33.817Z,26.83
2018-09-14T23:26:05.704Z,23.90
2018-09-14T23:28:34.404Z,24.13
2018-09-14T23:31:02.676Z,22.60
2018-09-14T23:33:31.040Z,22.90
2018-09-14T23:35:59.438Z,21.57
2018-09-14T23:38:27.709Z,20.73
2018-09-14T23:40:56.174Z,22.03
2018-09-14T23:43:24.813Z,23.03
2018-09-14T23:45:53.270Z,21.40
2018-09-14T23:48:21.777Z,21.13
2018-09-14T23:50:50.272Z,21.10
2018-09-14T23:53:18.563Z,17.77
2018-09-14T23:55:46.876Z,22.57
2018-09-14T23:58:15.296Z,21.97
